Fremont, MI

3:31 PM EST on November 11, 2019 (GMT -0500)
Fremont

Weather History for KFFX - September, 2019

Change the Weather History Date:

Monday, September 30, 2019

  Actual Average (WUND) Record (WUND)
Temperature  
Mean Temperature 69 °F -  
Max Temperature 82 °F - - (-1)
Min Temperature 56 °F - - (-1)
Cooling Degree Days 4    
Growing Degree Days 19 (Base 50)    
Moisture  
Dew Point 61 °F    
Average Humidity 84    
Maximum Humidity 98    
Minimum Humidity 47    
Precipitation  
Precipitation 0.00 in - - ()
Sea Level Pressure  
Sea Level Pressure 30.04 in    
Wind  
Wind Speed 6 mph ()    
Max Wind Speed 14 mph    
Max Gust Speed 21 mph    
Visibility 6.0 miles    
Events      
Averages and records for this station are not official NWS values.
T = Trace of Precipitation, MM = Missing Value Source: Averaged Metar Reports

Daily Weather History Graph

Daily Weather History Graph

Search for Another Location

Airport or City:

Astronomy

Sep. 30, 2019 Rise Set
Actual Time 7:40 AM EDT 7:27 PM EDT
Civil Twilight 7:11 AM EDT 7:55 PM EDT
Nautical Twilight 6:38 AM EDT 8:28 PM EDT
Astronomical Twilight 6:04 AM EDT 9:02 PM EDT
Moon 9:45 AM EDT (9/30) 8:58 PM EDT (9/30)
Length of Visible Light 12h 44m
Length of Day
11h 47m
Waxing Crescent, 5% of the Moon is Illuminated
Sep 30
Waxing Crescent
Oct 5
First Quarter
Oct 13
Full
Oct 21
Last Quarter
Oct 27
New

Hourly Weather History & Observations

Time (EDT) Temp. Heat Index Dew Point Humidity Pressure Visibility Wind Dir Wind Speed Gust Speed Precip Events Conditions
12:15 AM 57.2 °F - 56.3 °F 97% 30.18 in 3.0 mi ESE 6.9 mph - N/A   Overcast
12:35 AM 56.8 °F - 56.3 °F 98% 30.18 in 3.0 mi East 6.9 mph - N/A   Overcast
12:40 AM 57.0 °F - 56.3 °F 97% 30.18 in 4.0 mi East 6.9 mph - N/A   Overcast
12:58 AM 57.0 °F - 56.3 °F 97% 30.18 in 5.0 mi ESE 6.9 mph - N/A   Overcast
1:16 AM 57.0 °F - 56.1 °F 97% 30.18 in 7.0 mi East 6.9 mph - N/A   Overcast
1:35 AM 57.0 °F - 56.1 °F 97% 30.18 in 10.0 mi East 5.8 mph - N/A   Overcast
1:36 AM 56.8 °F - 55.9 °F 97% 30.18 in 10.0 mi East 5.8 mph - N/A   Overcast
1:55 AM 56.8 °F - 55.9 °F 97% 30.17 in 10.0 mi East 6.9 mph - N/A   Overcast
1:56 AM 56.8 °F - 55.9 °F 97% 30.17 in 10.0 mi East 6.9 mph - N/A   Overcast
2:19 AM 56.7 °F - 55.8 °F 97% 30.17 in 4.0 mi ESE 5.8 mph - N/A   Overcast
2:37 AM 56.7 °F - 55.9 °F 97% 30.17 in 3.0 mi ESE 5.8 mph - N/A   Overcast
2:55 AM 56.7 °F - 55.9 °F 97% 30.17 in 5.0 mi East 6.9 mph - N/A   Overcast
2:56 AM 56.7 °F - 55.9 °F 97% 30.17 in 5.0 mi East 6.9 mph - N/A   Overcast
3:15 AM 56.7 °F - 55.9 °F 97% 30.16 in 4.0 mi ESE 8.1 mph - N/A   Overcast
3:16 AM 56.7 °F - 55.9 °F 97% 30.16 in 4.0 mi ESE 8.1 mph - N/A   Overcast
3:35 AM 56.8 °F - 56.3 °F 98% 30.15 in 7.0 mi ESE 5.8 mph - N/A   Overcast
3:58 AM 56.8 °F - 56.1 °F 97% 30.15 in 7.0 mi ESE 6.9 mph - N/A   Overcast
4:16 AM 56.7 °F - 55.9 °F 97% 30.14 in 5.0 mi East 6.9 mph - N/A   Overcast
4:35 AM 56.7 °F - 55.9 °F 97% 30.13 in 5.0 mi ESE 6.9 mph - N/A   Overcast
4:56 AM 56.7 °F - 55.9 °F 97% 30.13 in 3.0 mi ESE 5.8 mph - N/A   Overcast
5:19 AM 56.7 °F - 55.9 °F 97% 30.13 in 2.5 mi East 5.8 mph - N/A   Overcast
5:37 AM 56.5 °F - 55.8 °F 97% 30.12 in 2.0 mi East 5.8 mph - N/A   Overcast
5:55 AM 56.7 °F - 55.8 °F 97% 30.12 in 1.5 mi ESE 4.6 mph - N/A   Overcast
6:15 AM 56.7 °F - 55.8 °F 97% 30.12 in 1.2 mi ESE 6.9 mph - N/A   Overcast
6:16 AM 56.7 °F - 55.8 °F 97% 30.12 in 1.2 mi ESE 6.9 mph - N/A   Overcast
6:35 AM 56.8 °F - 55.9 °F 97% 30.12 in 1.2 mi ESE 6.9 mph - N/A   Overcast
6:40 AM 56.8 °F - 55.9 °F 97% 30.12 in 1.2 mi ESE 6.9 mph - N/A   Overcast
6:58 AM 57.0 °F - 55.9 °F 96% 30.12 in 1.0 mi East 5.8 mph - N/A   Overcast
7:16 AM 57.0 °F - 55.9 °F 96% 30.11 in 1.2 mi ESE 6.9 mph - N/A   Overcast
7:35 AM 57.2 °F - 56.3 °F 97% 30.11 in 1.5 mi ESE 6.9 mph - N/A   Overcast
7:55 AM 57.2 °F - 56.3 °F 97% 30.11 in 1.5 mi ESE 8.1 mph - N/A   Overcast
8:19 AM 57.4 °F - 56.3 °F 96% 30.12 in 0.8 mi ESE 6.9 mph - N/A   Overcast
8:37 AM 57.4 °F - 56.3 °F 96% 30.11 in 0.8 mi ESE 8.1 mph - N/A   Overcast
8:56 AM 57.7 °F - 56.7 °F 96% 30.11 in 0.8 mi ESE 6.9 mph - N/A   Overcast
9:15 AM 58.1 °F - 57.2 °F 97% 30.10 in 0.8 mi ESE 6.9 mph - N/A   Overcast
9:35 AM 58.5 °F - 57.4 °F 96% 30.09 in 1.0 mi ESE 8.1 mph - N/A   Overcast
9:58 AM 58.8 °F - 57.7 °F 96% 30.09 in 1.5 mi ESE 6.9 mph - N/A   Overcast
10:16 AM 59.2 °F - 58.5 °F 97% 30.09 in 3.0 mi ESE 10.4 mph - N/A   Overcast
10:35 AM 59.9 °F - 59.4 °F 98% 30.08 in 4.0 mi ESE 9.2 mph - N/A   Overcast
10:55 AM 60.8 °F - 60.3 °F 98% 30.08 in 4.0 mi SE 8.1 mph - N/A   Overcast
11:19 AM 62.2 °F - 61.3 °F 97% 30.07 in 5.0 mi SE 4.6 mph - N/A   Overcast
11:37 AM 63.3 °F - 62.2 °F 96% 30.06 in 5.0 mi SE 9.2 mph - N/A   Overcast
11:56 AM 64.4 °F - 63.1 °F 96% 30.05 in 7.0 mi SE 8.1 mph - N/A   Overcast
12:15 PM 65.5 °F - 63.7 °F 94% 30.04 in 7.0 mi SE 8.1 mph - N/A   Overcast
12:35 PM 66.4 °F - 64.4 °F 93% 30.03 in 7.0 mi SSE 5.8 mph - N/A   Overcast
12:58 PM 68.2 °F - 65.3 °F 90% 30.03 in 7.0 mi SSE 5.8 mph - N/A   Overcast
1:16 PM 68.9 °F - 65.8 °F 90% 30.03 in 7.0 mi SSE 8.1 mph - N/A   Overcast
1:35 PM 71.1 °F - 66.4 °F 85% 30.02 in 7.0 mi SSE 8.1 mph - N/A   Overcast
1:55 PM 73.0 °F - 64.2 °F 74% 30.01 in 10.0 mi South 5.8 mph - N/A   Mostly Cloudy
1:56 PM 73.2 °F - 64.2 °F 73% 30.00 in 10.0 mi SSE 5.8 mph - N/A   Mostly Cloudy
2:19 PM 75.6 °F - 63.0 °F 65% 29.99 in 10.0 mi South 9.2 mph - N/A   Scattered Clouds
2:37 PM 77.5 °F - 62.6 °F 60% 29.99 in 10.0 mi SSW 12.7 mph 16.1 mph N/A   Scattered Clouds
2:55 PM 78.8 °F - 63.0 °F 58% 29.98 in 10.0 mi South 5.8 mph - N/A   Clear
2:56 PM 79.0 °F - 63.1 °F 58% 29.98 in 10.0 mi South 6.9 mph - N/A   Clear
3:15 PM 79.2 °F - 62.6 °F 57% 29.98 in 7.0 mi SSW 10.4 mph - N/A   Scattered Clouds
3:35 PM 80.6 °F 81.8 °F 62.8 °F 54% 29.97 in 4.0 mi South 8.1 mph - N/A   Haze
3:58 PM 81.7 °F 82.0 °F 59.9 °F 47% 29.96 in 7.0 mi SSW 12.7 mph 20.7 mph N/A   Clear
4:16 PM 81.7 °F 82.2 °F 60.1 °F 48% 29.96 in 5.0 mi SSW 13.8 mph - N/A   Haze
4:35 PM 82.0 °F 82.4 °F 60.1 °F 47% 29.96 in 7.0 mi SSW 12.7 mph 18.4 mph N/A   Clear
4:55 PM 82.4 °F 82.9 °F 60.6 °F 48% 29.96 in 7.0 mi SSW 9.2 mph - N/A   Clear
5:19 PM 82.2 °F 82.9 °F 61.3 °F 49% 29.95 in 7.0 mi SSW 9.2 mph - N/A   Clear
5:37 PM 81.9 °F 82.5 °F 61.2 °F 49% 29.94 in 7.0 mi SSW 8.1 mph - N/A   Clear
5:55 PM 81.5 °F 82.2 °F 61.0 °F 50% 29.94 in 5.0 mi SSW 11.5 mph - N/A   Haze
5:56 PM 81.3 °F 82.1 °F 61.0 °F 50% 29.94 in 7.0 mi SSW 10.4 mph - N/A   Clear
6:15 PM 80.4 °F 81.5 °F 61.9 °F 53% 29.94 in 7.0 mi SSW 8.1 mph - N/A   Clear
6:35 PM 79.7 °F - 62.4 °F 55% 29.94 in 7.0 mi SSW 6.9 mph - N/A   Clear
6:58 PM 77.9 °F - 63.3 °F 61% 29.94 in 5.0 mi SSW 5.8 mph - N/A   Haze
7:15 PM 77.2 °F - 63.5 °F 63% 29.94 in 7.0 mi South 5.8 mph - N/A   Clear
7:35 PM 76.6 °F - 63.7 °F 64% 29.93 in 7.0 mi South 5.8 mph - N/A   Clear
7:36 PM 76.5 °F - 63.7 °F 64% 29.93 in 7.0 mi South 5.8 mph - N/A   Clear
7:55 PM 75.6 °F - 64.6 °F 69% 29.93 in 10.0 mi South 3.5 mph - N/A   Clear
8:19 PM 74.8 °F - 67.1 °F 77% 29.93 in 10.0 mi South 3.5 mph - N/A   Clear
8:37 PM 74.3 °F - 68.7 °F 83% 29.93 in 10.0 mi South 3.5 mph - N/A   Clear
8:55 PM 72.1 °F - 68.9 °F 89% 29.93 in 10.0 mi South 4.6 mph - N/A   Clear
8:56 PM 72.1 °F - 68.9 °F 89% 29.93 in 10.0 mi South 3.5 mph - N/A   Clear
9:15 PM 73.4 °F - 69.1 °F 86% 29.93 in 10.0 mi SSW 3.5 mph - N/A   Clear
9:35 PM 72.3 °F - 68.5 °F 88% 29.92 in 10.0 mi SSW 4.6 mph - N/A   Clear
9:58 PM 73.8 °F - 66.0 °F 77% 29.92 in 10.0 mi South 3.5 mph - N/A   Clear
10:16 PM 73.4 °F - 65.8 °F 77% 29.92 in 10.0 mi South 4.6 mph - N/A   Clear
10:35 PM 72.7 °F - 67.1 °F 83% 29.92 in 10.0 mi South 4.6 mph - N/A   Clear
10:36 PM 72.9 °F - 66.9 °F 82% 29.92 in 10.0 mi South 3.5 mph - N/A   Clear
10:55 PM 73.0 °F - 66.0 °F 79% 29.92 in 10.0 mi South 3.5 mph - N/A   Clear
11:19 PM 71.1 °F - 67.3 °F 88% 29.92 in 10.0 mi SSW 4.6 mph - N/A   Clear
11:37 PM 72.5 °F - 67.1 °F 83% 29.92 in 10.0 mi Calm Calm - N/A   Clear
11:55 PM 72.0 °F - 67.5 °F 86% 29.93 in 10.0 mi Calm Calm - N/A   Clear